Time;durP1;ratioP1;P1;durP2;ratioP2;P2;SDS_P1;SDS_P2;PMS_P1;PMS_P2;Temp;Humidity;BMP_temperature;BMP_pressure;BME280_temperature;BME280_humidity;BME280_pressure;Samples;Min_cycle;Max_cycle;Signal;HPM_P1;HPM_P2
2023/11/09 00:00:57;;;;;;;9.68;5.28;;;11.30;99.30;;;;;;5024967;28;20073;-80
2023/11/09 00:03:23;;;;;;;9.82;5.82;;;11.30;99.30;;;;;;5022463;28;20498;-82
2023/11/09 00:05:49;;;;;;;8.43;5.65;;;11.30;99.30;;;;;;5019354;28;20038;-80
2023/11/09 00:08:16;;;;;;;8.20;5.10;;;11.30;99.30;;;;;;5024707;28;20466;-80
2023/11/09 00:10:41;;;;;;;9.90;5.43;;;11.30;99.40;;;;;;5017979;28;20040;-79
2023/11/09 00:13:07;;;;;;;9.35;5.57;;;11.40;99.40;;;;;;5021495;28;20038;-81
2023/11/09 00:15:33;;;;;;;9.35;5.07;;;11.40;99.30;;;;;;5025403;28;20034;-81
2023/11/09 00:17:59;;;;;;;10.15;6.10;;;11.40;99.40;;;;;;5022442;28;20087;-81
2023/11/09 00:20:26;;;;;;;9.13;5.38;;;11.40;99.40;;;;;;5023299;28;20120;-81
2023/11/09 00:22:53;;;;;;;7.60;4.70;;;11.40;99.40;;;;;;5022400;28;20052;-81
2023/11/09 00:25:19;;;;;;;9.82;5.47;;;11.40;99.40;;;;;;5022652;28;20487;-81
2023/11/09 00:27:44;;;;;;;8.45;4.63;;;11.40;99.50;;;;;;5021459;28;20088;-80
2023/11/09 00:30:11;;;;;;;10.52;5.57;;;11.40;99.50;;;;;;5020719;28;20453;-80
2023/11/09 00:32:37;;;;;;;10.63;5.00;;;11.40;99.50;;;;;;5023018;28;20033;-80
2023/11/09 00:35:04;;;;;;;12.18;5.00;;;11.40;99.50;;;;;;5020488;28;20029;-81
2023/11/09 00:37:31;;;;;;;8.00;4.53;;;11.50;99.50;;;;;;5024305;28;20061;-80
2023/11/09 00:39:59;;;;;;;8.77;5.07;;;11.40;99.50;;;;;;5023970;28;20522;-80
2023/11/09 00:42:24;;;;;;;8.57;4.68;;;11.50;99.60;;;;;;5023104;28;20129;-80
2023/11/09 00:44:50;;;;;;;8.48;4.82;;;11.50;99.60;;;;;;5024994;28;20120;-80
2023/11/09 00:47:16;;;;;;;9.30;5.45;;;11.50;99.60;;;;;;5022159;28;20394;-80
2023/11/09 00:49:42;;;;;;;10.00;5.25;;;11.50;99.70;;;;;;5024611;28;20421;-81
2023/11/09 00:52:07;;;;;;;10.13;4.82;;;11.50;99.70;;;;;;5022076;28;20390;-81
2023/11/09 00:54:33;;;;;;;8.40;4.80;;;11.50;99.70;;;;;;5020966;28;20025;-81
2023/11/09 00:56:59;;;;;;;8.00;5.22;;;11.50;99.70;;;;;;5021629;28;20113;-80
2023/11/09 00:59:25;;;;;;;8.55;4.75;;;11.50;99.80;;;;;;5022893;28;20022;-81
2023/11/09 01:01:50;;;;;;;4.53;3.03;;;11.40;99.70;;;;;;5015663;28;20037;-80
2023/11/09 01:04:17;;;;;;;4.60;3.25;;;11.30;99.60;;;;;;5019829;28;20034;-80
2023/11/09 01:06:43;;;;;;;6.63;3.90;;;11.20;99.70;;;;;;5020315;28;20117;-82
2023/11/09 01:09:08;;;;;;;4.25;2.92;;;11.20;99.60;;;;;;5015258;28;20445;-80
2023/11/09 01:11:34;;;;;;;5.47;3.35;;;11.10;99.60;;;;;;5014557;28;20083;-80
2023/11/09 01:13:59;;;;;;;6.68;3.78;;;11.10;99.70;;;;;;5024931;28;20460;-80
2023/11/09 01:16:25;;;;;;;7.13;4.05;;;11.10;99.70;;;;;;5016019;28;20084;-80
2023/11/09 01:18:51;;;;;;;6.38;3.58;;;11.10;99.70;;;;;;5015571;28;20049;-79
2023/11/09 01:21:16;;;;;;;6.90;3.80;;;11.10;99.70;;;;;;5022447;28;20041;-78
2023/11/09 01:23:42;;;;;;;6.40;3.90;;;11.10;99.60;;;;;;5024631;28;20060;-81
2023/11/09 01:26:09;;;;;;;6.75;4.00;;;11.00;99.60;;;;;;5020738;28;20087;-80
2023/11/09 01:28:35;;;;;;;5.90;3.45;;;11.00;99.60;;;;;;5021474;28;20652;-80
2023/11/09 01:31:02;;;;;;;6.60;3.92;;;10.90;99.60;;;;;;5012508;28;20060;-80
2023/11/09 01:33:28;;;;;;;6.78;3.58;;;10.90;99.60;;;;;;5021000;28;20429;-79
2023/11/09 01:35:54;;;;;;;5.65;2.97;;;10.90;99.60;;;;;;5021373;28;20048;-79
2023/11/09 01:38:20;;;;;;;4.63;2.85;;;10.90;99.60;;;;;;5016678;28;20049;-79
2023/11/09 01:40:53;;;;;;;5.95;3.25;;;10.80;99.50;;;;;;5018953;28;20238;-79
2023/11/09 01:43:19;;;;;;;7.88;4.47;;;10.80;99.50;;;;;;5015382;28;20033;-80
2023/11/09 01:45:45;;;;;;;9.13;5.15;;;10.80;99.50;;;;;;5024317;28;20044;-81
2023/11/09 01:48:12;;;;;;;10.07;5.13;;;10.80;99.40;;;;;;5020933;28;20029;-80
2023/11/09 01:50:37;;;;;;;10.05;5.80;;;10.70;99.40;;;;;;5021548;28;20041;-80
2023/11/09 01:53:07;;;;;;;10.57;6.50;;;10.70;99.30;;;;;;5022853;28;20049;-80
2023/11/09 01:55:34;;;;;;;11.13;6.75;;;10.70;99.30;;;;;;5019141;28;20036;-80
2023/11/09 01:58:02;;;;;;;11.25;6.82;;;10.70;99.30;;;;;;5014584;28;20045;-80
2023/11/09 02:00:28;;;;;;;12.15;6.90;;;10.70;99.30;;;;;;5020752;28;20048;-80
2023/11/09 02:02:56;;;;;;;11.85;7.32;;;10.70;99.30;;;;;;5019734;28;20033;-81
2023/11/09 02:05:23;;;;;;;14.88;8.48;;;10.70;99.30;;;;;;5016597;28;20096;-81
2023/11/09 02:07:49;;;;;;;17.15;9.10;;;10.70;99.20;;;;;;5019674;28;21610;-80
2023/11/09 02:10:16;;;;;;;14.15;8.85;;;10.60;99.20;;;;;;5021825;28;20207;-80
2023/11/09 02:12:42;;;;;;;14.48;9.68;;;10.60;99.30;;;;;;5017903;28;20045;-81
2023/11/09 02:15:08;;;;;;;16.63;10.70;;;10.60;99.20;;;;;;5012964;28;20471;-79
2023/11/09 02:17:33;;;;;;;16.58;11.30;;;10.60;99.10;;;;;;5019535;28;20037;-81
2023/11/09 02:20:00;;;;;;;16.55;12.40;;;10.60;99.10;;;;;;5019615;28;20466;-81
2023/11/09 02:22:27;;;;;;;21.30;14.52;;;10.60;99.10;;;;;;5015764;28;20037;-81
2023/11/09 02:24:54;;;;;;;17.38;13.63;;;10.60;99.00;;;;;;5036601;28;20087;-80
2023/11/09 02:27:20;;;;;;;21.48;15.60;;;10.50;99.10;;;;;;5021725;28;20054;-80
2023/11/09 02:29:46;;;;;;;19.83;14.95;;;10.60;99.10;;;;;;5012831;28;20087;-80
2023/11/09 02:32:11;;;;;;;22.00;15.93;;;10.50;99.00;;;;;;5015548;28;20050;-78
2023/11/09 02:34:37;;;;;;;20.88;14.32;;;10.50;98.90;;;;;;5020646;28;20030;-81
2023/11/09 02:37:07;;;;;;;21.27;14.70;;;10.50;98.90;;;;;;5019437;28;20057;-80
2023/11/09 02:39:33;;;;;;;18.13;12.73;;;10.50;98.90;;;;;;5016275;28;20184;-80
2023/11/09 02:42:00;;;;;;;20.05;14.35;;;10.40;98.90;;;;;;5025782;28;20573;-79
2023/11/09 02:44:26;;;;;;;21.77;11.98;;;10.40;98.80;;;;;;5020971;28;20026;-81
2023/11/09 02:46:52;;;;;;;16.08;9.43;;;10.40;98.70;;;;;;5016806;28;20989;-81
2023/11/09 02:49:17;;;;;;;19.02;9.50;;;10.30;98.60;;;;;;5020559;28;20100;-80
2023/11/09 02:51:43;;;;;;;18.67;8.60;;;10.30;98.60;;;;;;5023187;28;20117;-80
2023/11/09 02:54:08;;;;;;;16.23;8.85;;;10.20;98.60;;;;;;5022872;28;20525;-81
2023/11/09 02:56:36;;;;;;;14.43;8.93;;;10.10;98.60;;;;;;5023098;28;20045;-81
2023/11/09 02:59:02;;;;;;;16.75;8.93;;;10.20;98.70;;;;;;5027407;28;20040;-81
2023/11/09 03:01:28;;;;;;;15.15;9.30;;;10.20;98.60;;;;;;5019614;28;20037;-80
2023/11/09 03:03:54;;;;;;;17.50;9.32;;;10.20;98.60;;;;;;5027038;28;20043;-80
2023/11/09 03:06:21;;;;;;;17.83;9.63;;;10.20;98.50;;;;;;5020846;28;20445;-80
2023/11/09 03:08:47;;;;;;;13.88;8.20;;;10.10;98.50;;;;;;5026473;28;20022;-81
2023/11/09 03:11:20;;;;;;;19.23;10.55;;;10.20;98.50;;;;;;5020132;28;20509;-80
2023/11/09 03:13:46;;;;;;;14.93;9.75;;;10.20;98.50;;;;;;5016072;28;20421;-81
2023/11/09 03:16:13;;;;;;;18.08;10.10;;;10.10;98.50;;;;;;5025015;28;20446;-80
2023/11/09 03:18:41;;;;;;;17.83;9.73;;;10.10;98.50;;;;;;5024292;28;20042;-80
2023/11/09 03:21:08;;;;;;;15.95;9.70;;;10.10;98.50;;;;;;5021910;28;20375;-80
2023/11/09 03:23:34;;;;;;;17.67;9.75;;;10.10;98.50;;;;;;5014937;28;20053;-78
2023/11/09 03:26:00;;;;;;;20.63;10.25;;;10.10;98.50;;;;;;5019410;28;20058;-80
2023/11/09 03:28:26;;;;;;;16.90;10.10;;;10.10;98.40;;;;;;5022618;28;20200;-79
2023/11/09 03:30:52;;;;;;;18.25;11.13;;;10.10;98.40;;;;;;5018533;28;20033;-79
2023/11/09 03:33:18;;;;;;;18.38;10.27;;;10.10;98.30;;;;;;5021316;28;20033;-79
2023/11/09 03:35:44;;;;;;;16.50;9.90;;;10.10;98.40;;;;;;5025160;28;20467;-80
2023/11/09 03:38:10;;;;;;;17.75;10.30;;;10.10;98.40;;;;;;5021860;28;20168;-79
2023/11/09 03:40:35;;;;;;;17.48;9.60;;;10.10;98.40;;;;;;5015613;28;20467;-79
2023/11/09 03:43:01;;;;;;;16.52;9.70;;;10.10;98.30;;;;;;5020579;28;20049;-79
2023/11/09 03:45:26;;;;;;;18.30;9.82;;;10.10;98.20;;;;;;5022678;28;20068;-79
2023/11/09 03:47:53;;;;;;;17.45;9.30;;;10.10;98.20;;;;;;5018107;28;20033;-82
2023/11/09 03:50:19;;;;;;;17.08;9.23;;;10.00;98.20;;;;;;5046376;28;20036;-80
2023/11/09 03:52:45;;;;;;;16.38;8.77;;;10.00;98.20;;;;;;5044773;28;20033;-81
2023/11/09 03:55:11;;;;;;;16.52;8.98;;;10.00;98.20;;;;;;5040472;28;20054;-81
2023/11/09 03:57:38;;;;;;;17.05;9.20;;;9.90;98.10;;;;;;5025177;28;20068;-81
2023/11/09 04:00:10;;;;;;;17.05;8.65;;;9.90;98.00;;;;;;5021223;28;20025;-81
2023/11/09 04:02:37;;;;;;;15.82;8.27;;;10.00;98.00;;;;;;5020433;28;20030;-80
2023/11/09 04:05:02;;;;;;;16.92;8.82;;;10.00;98.00;;;;;;5021394;28;20045;-80
2023/11/09 04:07:30;;;;;;;18.35;8.88;;;10.00;98.10;;;;;;5021537;28;20041;-80
2023/11/09 04:09:56;;;;;;;19.63;9.15;;;9.90;97.90;;;;;;5022393;28;20049;-80
2023/11/09 04:12:22;;;;;;;15.57;8.25;;;9.90;98.00;;;;;;5018842;28;20037;-80
2023/11/09 04:14:47;;;;;;;15.07;8.88;;;9.90;97.90;;;;;;5024917;28;22062;-80
2023/11/09 04:17:13;;;;;;;18.13;8.48;;;9.90;97.90;;;;;;5024257;28;20080;-81
2023/11/09 04:19:38;;;;;;;17.83;9.15;;;9.80;97.90;;;;;;5029229;28;20041;-81
2023/11/09 04:22:04;;;;;;;17.38;8.88;;;9.80;97.90;;;;;;5019302;28;20037;-80
2023/11/09 04:24:30;;;;;;;17.85;8.63;;;9.70;97.90;;;;;;5023141;28;20033;-80
2023/11/09 04:26:57;;;;;;;16.40;8.15;;;9.70;97.80;;;;;;5025402;28;20034;-80
2023/11/09 04:29:24;;;;;;;18.15;8.40;;;9.80;97.80;;;;;;5023133;28;20037;-79
2023/11/09 04:31:49;;;;;;;15.82;7.40;;;9.70;97.70;;;;;;5018774;28;20043;-79
2023/11/09 04:34:15;;;;;;;17.40;8.60;;;9.70;97.70;;;;;;5018419;28;20030;-79
2023/11/09 04:36:44;;;;;;;18.17;8.07;;;9.60;97.80;;;;;;5023777;28;20091;-80
2023/11/09 04:39:12;;;;;;;13.57;7.38;;;9.70;97.80;;;;;;5018519;28;20025;-80
2023/11/09 04:41:37;;;;;;;16.17;8.02;;;9.70;97.80;;;;;;5023974;28;20033;-80
2023/11/09 04:44:04;;;;;;;15.77;7.90;;;9.60;97.80;;;;;;5022431;28;20058;-80
2023/11/09 04:46:29;;;;;;;22.48;8.48;;;9.60;97.80;;;;;;5021284;28;20030;-80
2023/11/09 04:48:57;;;;;;;15.18;7.25;;;9.60;97.90;;;;;;5019087;28;20508;-80
2023/11/09 04:51:32;;;;;;;16.90;7.30;;;9.60;97.90;;;;;;5017688;28;20037;-80
2023/11/09 04:54:16;;;;;;;13.57;6.53;;;9.60;97.90;;;;;;5020338;28;20029;-79
2023/11/09 05:07:25;;;;;;;14.50;6.82;;;9.50;97.90;;;;;;5019100;28;20525;-81
2023/11/09 05:09:51;;;;;;;13.65;7.50;;;9.50;98.00;;;;;;5018980;28;20467;-80
2023/11/09 05:12:17;;;;;;;12.65;7.15;;;9.50;98.00;;;;;;5019429;28;20128;-80
2023/11/09 05:14:43;;;;;;;11.45;7.03;;;9.40;98.00;;;;;;5024588;28;21271;-81
2023/11/09 05:17:10;;;;;;;14.57;6.93;;;9.40;98.10;;;;;;5020086;28;20045;-80
2023/11/09 05:19:36;;;;;;;16.17;7.38;;;9.40;98.10;;;;;;5023376;28;20029;-81
2023/11/09 05:22:02;;;;;;;17.27;7.22;;;9.30;98.20;;;;;;5020567;28;20103;-81
2023/11/09 05:24:28;;;;;;;14.98;6.93;;;9.30;98.20;;;;;;5019793;28;20463;-80
2023/11/09 05:26:54;;;;;;;14.00;7.72;;;9.20;98.20;;;;;;5022111;28;20663;-80
2023/11/09 05:29:20;;;;;;;15.35;6.85;;;9.20;98.30;;;;;;5018132;28;20030;-81
2023/11/09 05:31:46;;;;;;;13.38;6.75;;;9.20;98.40;;;;;;5017683;28;20106;-81
2023/11/09 05:34:12;;;;;;;14.38;7.45;;;9.20;98.30;;;;;;5020440;28;20490;-81
2023/11/09 05:36:38;;;;;;;15.30;7.10;;;9.10;98.40;;;;;;5019292;28;20030;-80
2023/11/09 05:39:07;;;;;;;19.20;7.72;;;9.10;98.40;;;;;;5015595;28;20036;-80
2023/11/09 05:41:33;;;;;;;15.45;7.97;;;9.10;98.50;;;;;;5013146;28;20037;-80
2023/11/09 05:43:59;;;;;;;15.90;7.88;;;9.10;98.50;;;;;;5019933;28;20033;-79
2023/11/09 05:46:24;;;;;;;17.00;8.15;;;9.10;98.60;;;;;;5013420;28;20095;-79
2023/11/09 05:48:50;;;;;;;14.43;7.75;;;9.10;98.60;;;;;;5017461;28;20041;-80
2023/11/09 05:51:23;;;;;;;12.90;7.60;;;9.00;98.60;;;;;;5017395;28;20030;-80
2023/11/09 05:53:49;;;;;;;14.52;8.43;;;8.90;98.60;;;;;;5018889;28;20029;-81
2023/11/09 05:56:18;;;;;;;14.43;8.38;;;8.90;98.60;;;;;;5019593;28;20433;-81
2023/11/09 05:58:44;;;;;;;16.58;8.35;;;8.90;98.70;;;;;;5019309;28;20119;-82
2023/11/09 06:01:13;;;;;;;15.05;7.93;;;8.90;98.70;;;;;;5011580;28;20033;-80
2023/11/09 06:03:39;;;;;;;17.05;9.10;;;8.80;98.70;;;;;;5020628;28;20056;-81
2023/11/09 06:06:05;;;;;;;20.27;9.38;;;8.80;98.70;;;;;;5020168;28;20436;-81
2023/11/09 06:08:31;;;;;;;15.90;8.15;;;8.70;98.70;;;;;;5018166;28;20033;-80
2023/11/09 06:10:57;;;;;;;18.67;8.60;;;8.70;98.80;;;;;;5015539;28;20064;-80
2023/11/09 06:13:23;;;;;;;19.23;9.57;;;8.60;98.80;;;;;;5020308;28;20279;-79
2023/11/09 06:15:49;;;;;;;16.45;7.95;;;8.60;98.80;;;;;;5020368;28;20398;-81
2023/11/09 06:18:16;;;;;;;16.05;9.10;;;8.60;98.80;;;;;;5018891;28;20029;-81
2023/11/09 06:20:44;;;;;;;15.75;9.25;;;8.60;98.80;;;;;;5016520;28;20636;-80
2023/11/09 06:23:10;;;;;;;18.60;9.82;;;8.60;98.90;;;;;;5018640;28;20160;-78
2023/11/09 06:25:35;;;;;;;17.98;9.23;;;8.60;99.00;;;;;;5014894;28;20132;-77
2023/11/09 06:28:02;;;;;;;16.00;8.75;;;8.50;99.00;;;;;;5019876;28;20875;-77
2023/11/09 06:30:29;;;;;;;18.80;8.85;;;8.50;99.00;;;;;;5019108;28;20028;-76
2023/11/09 06:32:55;;;;;;;15.60;8.60;;;8.50;99.00;;;;;;5019941;28;20502;-78
2023/11/09 06:35:20;;;;;;;20.45;9.90;;;8.50;99.10;;;;;;5019821;28;20045;-77
2023/11/09 06:37:46;;;;;;;21.85;10.18;;;8.40;99.10;;;;;;5020455;28;20084;-77
2023/11/09 06:40:16;;;;;;;18.67;9.35;;;8.40;99.10;;;;;;5018693;28;20107;-77
2023/11/09 06:42:43;;;;;;;20.55;9.80;;;8.40;99.20;;;;;;5015018;28;20053;-77
2023/11/09 06:45:09;;;;;;;16.30;9.05;;;8.40;99.20;;;;;;5020007;28;20076;-77
2023/11/09 06:47:37;;;;;;;16.20;9.55;;;8.40;99.20;;;;;;5017678;28;20077;-76
2023/11/09 06:50:03;;;;;;;20.00;9.75;;;8.50;99.30;;;;;;5020375;28;20038;-77
2023/11/09 06:52:29;;;;;;;17.27;9.32;;;8.50;99.30;;;;;;5020021;28;20037;-78
2023/11/09 06:54:54;;;;;;;16.65;8.75;;;8.50;99.30;;;;;;5020823;28;20761;-78
2023/11/09 06:57:20;;;;;;;20.45;8.88;;;8.50;99.30;;;;;;5022244;28;20034;-78
2023/11/09 06:59:46;;;;;;;19.85;9.55;;;8.50;99.30;;;;;;5022004;28;20458;-78
2023/11/09 07:02:12;;;;;;;24.73;9.90;;;8.50;99.30;;;;;;5019973;28;21249;-78
2023/11/09 07:04:38;;;;;;;16.77;8.30;;;8.60;99.30;;;;;;5013225;28;20075;-77
2023/11/09 07:07:03;;;;;;;20.90;9.80;;;8.50;99.30;;;;;;5015198;28;20065;-77
2023/11/09 07:09:29;;;;;;;19.60;9.85;;;8.60;99.30;;;;;;5013931;28;20025;-77
2023/11/09 07:11:55;;;;;;;20.20;10.50;;;8.50;99.30;;;;;;5017869;28;20038;-78
2023/11/09 07:14:23;;;;;;;19.55;9.50;;;8.60;99.30;;;;;;5016920;28;20068;-78
2023/11/09 07:16:55;;;;;;;17.77;10.27;;;8.60;99.40;;;;;;5021550;28;20099;-76
2023/11/09 07:19:24;;;;;;;21.88;11.43;;;8.60;99.40;;;;;;5014580;28;20088;-76
2023/11/09 07:21:50;;;;;;;21.20;10.88;;;8.60;99.30;;;;;;5020534;28;20044;-77
2023/11/09 07:24:17;;;;;;;19.88;10.38;;;8.60;99.30;;;;;;5015873;28;20037;-76
2023/11/09 07:26:43;;;;;;;21.50;10.55;;;8.60;99.30;;;;;;5012550;28;20033;-76
2023/11/09 07:29:10;;;;;;;20.17;9.52;;;8.60;99.20;;;;;;5021990;28;20053;-77
2023/11/09 07:31:35;;;;;;;19.25;10.23;;;8.70;99.20;;;;;;5024418;28;20934;-77
2023/11/09 07:34:01;;;;;;;18.20;8.93;;;8.70;99.10;;;;;;5020106;28;20124;-76
2023/11/09 07:36:27;;;;;;;16.20;8.45;;;8.70;99.10;;;;;;5016317;28;20404;-77
2023/11/09 07:38:53;;;;;;;20.75;8.63;;;8.60;99.00;;;;;;5021019;28;20041;-77
2023/11/09 07:41:19;;;;;;;20.48;9.20;;;8.70;99.00;;;;;;5020246;28;20045;-77
2023/11/09 07:43:44;;;;;;;24.58;9.40;;;8.70;98.90;;;;;;5019909;28;20030;-77
2023/11/09 07:46:10;;;;;;;21.05;9.30;;;8.80;98.90;;;;;;5020584;28;20038;-77
2023/11/09 07:48:35;;;;;;;24.85;9.73;;;8.80;98.90;;;;;;5020515;28;20033;-76
2023/11/09 07:51:01;;;;;;;17.05;9.88;;;8.90;98.80;;;;;;5035094;28;20564;-77
2023/11/09 07:53:28;;;;;;;21.95;10.13;;;8.90;98.70;;;;;;5021575;28;20172;-76
2023/11/09 07:55:53;;;;;;;17.85;9.95;;;8.90;98.60;;;;;;5016064;28;20037;-77
2023/11/09 07:58:20;;;;;;;25.60;10.20;;;9.00;98.60;;;;;;5020023;28;20037;-77
2023/11/09 08:00:45;;;;;;;18.25;9.27;;;9.00;98.60;;;;;;5021087;28;20029;-77
2023/11/09 08:03:11;;;;;;;19.80;9.38;;;9.10;98.60;;;;;;5021167;28;20044;-77
2023/11/09 08:05:41;;;;;;;19.92;9.55;;;9.10;98.50;;;;;;5018579;28;20030;-77
2023/11/09 08:08:10;;;;;;;19.83;8.48;;;9.10;98.40;;;;;;5023624;28;20025;-77
2023/11/09 08:10:38;;;;;;;16.95;8.68;;;9.20;98.40;;;;;;5023872;28;20124;-76
2023/11/09 08:13:04;;;;;;;18.52;9.05;;;9.20;98.30;;;;;;5013554;28;20029;-77
2023/11/09 08:15:31;;;;;;;18.77;7.35;;;9.30;98.20;;;;;;5024168;28;20517;-77
2023/11/09 08:17:57;;;;;;;17.00;7.82;;;9.30;98.10;;;;;;5021691;28;20037;-78
2023/11/09 08:20:23;;;;;;;16.92;6.85;;;9.30;98.00;;;;;;5023672;28;20167;-78
2023/11/09 08:22:50;;;;;;;18.08;6.93;;;9.30;97.90;;;;;;5020842;28;20041;-77
2023/11/09 08:25:20;;;;;;;13.02;6.43;;;9.40;97.80;;;;;;5032465;28;20494;-76
2023/11/09 08:27:46;;;;;;;19.15;7.63;;;9.50;97.80;;;;;;5032053;28;20069;-76
2023/11/09 08:30:15;;;;;;;17.67;6.47;;;9.60;97.80;;;;;;5041642;28;20030;-77
2023/11/09 08:32:45;;;;;;;18.90;7.13;;;9.70;97.60;;;;;;5029926;28;20076;-77
2023/11/09 08:35:11;;;;;;;17.77;6.45;;;9.80;97.30;;;;;;5034768;28;20089;-78
2023/11/09 08:37:43;;;;;;;19.00;6.78;;;9.80;97.10;;;;;;5025452;28;20118;-78
2023/11/09 08:40:17;;;;;;;17.63;6.43;;;9.90;97.00;;;;;;5021099;28;20048;-78
2023/11/09 08:42:48;;;;;;;16.45;6.65;;;9.90;96.80;;;;;;5022110;28;20069;-79
2023/11/09 08:45:17;;;;;;;17.40;7.25;;;9.90;96.70;;;;;;5021528;28;20042;-77
2023/11/09 08:47:46;;;;;;;19.42;8.50;;;9.90;96.60;;;;;;5020085;28;20470;-78
2023/11/09 08:50:13;;;;;;;20.13;8.75;;;9.90;96.50;;;;;;5020185;28;20037;-76
2023/11/09 08:52:44;;;;;;;31.90;13.93;;;9.90;96.60;;;;;;5017282;28;20072;-79
2023/11/09 08:55:11;;;;;;;20.95;9.32;;;10.00;96.50;;;;;;5018161;28;20041;-77
2023/11/09 08:57:38;;;;;;;21.70;11.73;;;10.00;96.50;;;;;;5018345;28;20120;-77
2023/11/09 09:00:06;;;;;;;31.67;18.67;;;10.10;96.50;;;;;;5020587;28;20029;-78
2023/11/09 09:02:32;;;;;;;27.60;13.27;;;10.10;96.40;;;;;;5023726;28;20715;-81
2023/11/09 09:05:03;;;;;;;36.08;13.32;;;10.20;96.40;;;;;;5023573;28;20033;-76
2023/11/09 09:07:29;;;;;;;24.92;12.77;;;10.30;96.20;;;;;;5018992;28;20040;-78
2023/11/09 09:09:55;;;;;;;29.88;15.73;;;10.40;96.00;;;;;;5021331;28;20053;-78
2023/11/09 09:12:21;;;;;;;21.70;9.55;;;10.60;95.70;;;;;;5019921;28;20038;-78
2023/11/09 09:14:50;;;;;;;18.52;7.15;;;10.60;95.20;;;;;;5021861;28;20033;-79
2023/11/09 09:17:16;;;;;;;19.70;5.95;;;10.70;95.10;;;;;;5023540;28;21479;-77
2023/11/09 09:19:42;;;;;;;18.55;6.50;;;10.70;94.60;;;;;;5020725;28;20025;-79
2023/11/09 09:22:09;;;;;;;19.17;5.97;;;10.60;94.60;;;;;;5022677;28;20335;-78
2023/11/09 09:24:39;;;;;;;17.85;5.40;;;10.70;94.90;;;;;;5023439;28;20032;-78
2023/11/09 09:27:09;;;;;;;16.30;5.50;;;10.80;94.90;;;;;;5020869;28;20108;-78
2023/11/09 09:29:35;;;;;;;21.80;5.88;;;10.90;94.70;;;;;;5022198;28;20482;-78
2023/11/09 09:32:04;;;;;;;20.58;5.45;;;10.80;94.50;;;;;;5021550;28;20050;-79
2023/11/09 09:34:30;;;;;;;24.65;5.95;;;10.90;94.50;;;;;;5021314;28;20067;-77
2023/11/09 09:36:58;;;;;;;20.92;5.47;;;11.00;94.30;;;;;;5021099;28;20087;-77
2023/11/09 09:39:25;;;;;;;17.35;5.32;;;10.90;94.30;;;;;;5022167;28;20029;-78
2023/11/09 09:41:51;;;;;;;18.55;5.15;;;10.90;94.10;;;;;;5014723;28;20022;-78
2023/11/09 09:44:18;;;;;;;18.17;5.45;;;11.00;93.80;;;;;;5018558;28;20030;-79
2023/11/09 09:46:44;;;;;;;19.55;5.65;;;11.00;93.80;;;;;;5019808;28;20045;-77
2023/11/09 09:49:14;;;;;;;20.73;6.03;;;10.90;93.60;;;;;;5017243;28;20534;-78
2023/11/09 09:51:40;;;;;;;19.13;5.13;;;10.90;93.80;;;;;;5017572;28;20046;-78
2023/11/09 09:54:09;;;;;;;15.90;4.30;;;11.00;93.60;;;;;;5021927;28;20029;-79
2023/11/09 09:56:38;;;;;;;16.65;4.85;;;11.10;93.60;;;;;;5015683;28;20041;-77
2023/11/09 09:59:09;;;;;;;18.20;4.82;;;11.20;93.20;;;;;;5024922;28;20043;-78
2023/11/09 10:01:37;;;;;;;20.80;5.57;;;11.20;93.20;;;;;;5018707;28;20316;-77
2023/11/09 10:04:05;;;;;;;20.45;6.05;;;11.30;93.00;;;;;;5022108;28;20025;-77
2023/11/09 10:06:31;;;;;;;22.02;5.75;;;11.30;92.70;;;;;;5013741;28;20053;-78
2023/11/09 10:08:57;;;;;;;15.68;4.80;;;11.30;92.70;;;;;;5024855;28;20022;-78
2023/11/09 10:11:23;;;;;;;21.90;5.05;;;11.40;92.80;;;;;;5017762;28;20038;-78
2023/11/09 10:13:49;;;;;;;18.88;4.82;;;11.20;92.60;;;;;;5020542;28;20033;-79
2023/11/09 10:16:15;;;;;;;21.17;4.85;;;11.20;92.50;;;;;;5016776;28;20041;-77
2023/11/09 10:18:41;;;;;;;16.08;4.60;;;11.10;92.40;;;;;;5015773;28;20037;-77
2023/11/09 10:21:12;;;;;;;20.70;5.40;;;11.10;92.60;;;;;;5014064;28;20572;-77
2023/11/09 10:23:39;;;;;;;19.85;4.57;;;11.10;92.70;;;;;;5014969;28;20033;-76
2023/11/09 10:26:11;;;;;;;19.30;5.55;;;11.10;92.80;;;;;;5017618;28;20045;-77
2023/11/09 10:28:38;;;;;;;21.38;5.13;;;11.10;92.70;;;;;;5019925;28;20050;-76
2023/11/09 10:31:04;;;;;;;18.00;5.50;;;11.10;92.50;;;;;;5018978;28;20033;-76
2023/11/09 10:33:32;;;;;;;19.75;5.28;;;11.10;92.20;;;;;;5018992;28;20080;-77
2023/11/09 10:36:01;;;;;;;24.55;5.78;;;11.10;92.30;;;;;;5018977;28;20060;-75
2023/11/09 10:38:36;;;;;;;18.95;4.47;;;11.10;92.10;;;;;;5017569;28;20069;-74
2023/11/09 10:41:04;;;;;;;;;;;11.10;92.10;;;;;;5020414;28;20034;-76
2023/11/09 10:43:33;;;;;;;21.45;5.50;;;11.10;91.80;;;;;;5016974;28;19956;-75
2023/11/09 10:46:02;;;;;;;20.25;5.45;;;11.20;91.70;;;;;;5018479;28;20048;-77
2023/11/09 10:48:32;;;;;;;18.83;4.90;;;11.30;91.50;;;;;;5014139;28;20689;-76
2023/11/09 10:50:58;;;;;;;26.58;5.43;;;11.40;91.40;;;;;;5022158;28;20032;-77
2023/11/09 10:53:26;;;;;;;21.75;6.03;;;11.40;91.50;;;;;;5021488;28;20100;-77
2023/11/09 10:55:53;;;;;;;23.20;5.57;;;11.40;91.10;;;;;;5014484;28;20033;-78
2023/11/09 10:58:21;;;;;;;21.50;5.25;;;11.50;91.10;;;;;;5015724;28;20473;-78
2023/11/09 11:00:50;;;;;;;24.08;4.57;;;11.60;90.70;;;;;;5016488;28;20448;-78
2023/11/09 11:03:25;;;;;;;22.08;4.90;;;11.70;90.50;;;;;;5022523;28;20595;-78
2023/11/09 11:05:57;;;;;;;18.50;4.85;;;11.90;90.30;;;;;;5026432;28;20045;-77
2023/11/09 11:08:26;;;;;;;22.33;4.93;;;12.20;90.40;;;;;;5018090;28;20038;-78
2023/11/09 11:10:52;;;;;;;21.42;8.57;;;12.40;89.50;;;;;;5019371;28;20030;-78
2023/11/09 11:13:19;;;;;;;19.55;5.90;;;12.50;88.90;;;;;;5023710;28;20041;-77
2023/11/09 11:16:16;;;;;;;18.90;5.65;;;12.50;88.50;;;;;;5023283;28;20552;-78
2023/11/09 11:19:06;;;;;;;18.23;4.50;;;12.50;88.30;;;;;;5022780;28;20053;-77
2023/11/09 11:21:45;;;;;;;24.25;4.82;;;12.30;87.80;;;;;;5016433;28;20072;-78
2023/11/09 11:24:20;;;;;;;17.65;4.50;;;12.30;88.00;;;;;;5022849;28;20041;-78
2023/11/09 11:26:55;;;;;;;;;;;12.40;88.40;;;;;;5023729;28;20087;-78
2023/11/09 11:29:20;;;;;;;18.20;4.53;;;12.60;88.00;;;;;;5025057;28;19917;-78
2023/11/09 11:31:47;;;;;;;22.83;5.20;;;12.60;87.50;;;;;;5020851;28;20204;-77
2023/11/09 11:34:16;;;;;;;17.73;5.07;;;12.60;87.30;;;;;;5023572;28;20503;-77
2023/11/09 11:36:47;;;;;;;23.77;7.75;;;12.60;87.30;;;;;;5019282;28;20118;-78
2023/11/09 11:39:31;;;;;;;20.95;5.00;;;12.60;87.70;;;;;;5023136;28;20106;-78
2023/11/09 11:42:16;;;;;;;26.73;6.47;;;12.50;87.40;;;;;;5017383;28;20099;-78
2023/11/09 11:44:48;;;;;;;18.90;5.78;;;12.50;87.60;;;;;;5022525;28;20034;-77
2023/11/09 11:47:14;;;;;;;25.42;5.13;;;12.50;87.60;;;;;;5022100;28;20046;-77
2023/11/09 11:49:40;;;;;;;23.65;5.63;;;12.50;87.70;;;;;;5021080;28;20064;-77
2023/11/09 11:52:09;;;;;;;20.90;4.53;;;12.50;87.50;;;;;;5018148;28;20471;-78
2023/11/09 11:54:35;;;;;;;20.60;4.68;;;12.50;87.80;;;;;;5018816;28;20053;-77
2023/11/09 11:57:01;;;;;;;19.88;4.18;;;12.50;87.40;;;;;;5019293;28;20033;-78
2023/11/09 11:59:29;;;;;;;19.10;4.32;;;12.40;87.70;;;;;;5020132;28;20084;-77
2023/11/09 12:01:55;;;;;;;14.00;4.13;;;12.50;87.70;;;;;;5018129;28;20030;-78
2023/11/09 12:04:21;;;;;;;14.90;4.82;;;12.50;87.30;;;;;;5019747;28;20056;-78
2023/11/09 12:06:47;;;;;;;10.23;4.05;;;12.60;87.30;;;;;;5014795;28;20057;-77
2023/11/09 12:09:15;;;;;;;17.25;4.70;;;12.60;86.40;;;;;;5019007;28;20025;-77
2023/11/09 12:11:46;;;;;;;15.27;4.90;;;12.50;86.30;;;;;;5016222;28;20042;-78
2023/11/09 12:14:13;;;;;;;23.02;4.60;;;12.50;87.10;;;;;;5020765;28;20132;-78
2023/11/09 12:16:39;;;;;;;16.05;3.90;;;12.50;87.10;;;;;;5020519;28;20064;-77
2023/11/09 12:19:06;;;;;;;14.38;3.85;;;12.40;86.50;;;;;;5021025;28;20029;-78
2023/11/09 12:21:34;;;;;;;15.35;3.80;;;12.40;86.70;;;;;;5019973;28;20120;-78
2023/11/09 12:24:00;;;;;;;15.30;4.78;;;12.30;86.80;;;;;;5027834;28;20100;-78
2023/11/09 12:26:32;;;;;;;13.18;3.40;;;12.20;87.20;;;;;;5017406;28;20049;-78
2023/11/09 12:29:00;;;;;;;18.23;3.78;;;12.10;87.90;;;;;;5014966;28;20053;-78
2023/11/09 12:31:27;;;;;;;15.98;3.60;;;12.10;87.90;;;;;;5024844;28;20039;-78
2023/11/09 12:34:13;;;;;;;18.10;4.05;;;12.10;87.80;;;;;;5020119;28;20037;-77
2023/11/09 12:36:44;;;;;;;13.95;3.70;;;12.10;87.80;;;;;;5022927;28;20067;-78
2023/11/09 12:39:28;;;;;;;11.10;3.40;;;12.10;87.50;;;;;;5022464;28;20036;-78
2023/11/09 12:41:59;;;;;;;16.08;4.20;;;12.10;88.10;;;;;;5025399;28;20095;-78
2023/11/09 12:44:29;;;;;;;11.00;3.17;;;12.20;88.30;;;;;;5022551;28;20038;-77
2023/11/09 12:47:15;;;;;;;14.75;3.60;;;12.30;88.20;;;;;;5021677;28;20597;-78
2023/11/09 12:49:44;;;;;;;14.45;3.20;;;12.20;87.90;;;;;;5022944;28;20036;-78
2023/11/09 12:52:10;;;;;;;12.38;3.30;;;12.10;88.00;;;;;;5027173;28;20029;-75